createdAt,value
2023-01-02T00:02:52.689Z,-1.3597
2023-01-02T00:07:53.690Z,0.22473
2023-01-02T00:12:54.644Z,0.74917
2023-01-02T00:17:55.539Z,1.19107
2023-01-02T00:22:56.459Z,2.37181
2023-01-02T00:27:57.390Z,2.11914
2023-01-02T00:32:58.282Z,2.7639
2023-01-02T00:37:59.242Z,1.87306
2023-01-02T00:43:00.242Z,2.79494
2023-01-02T00:48:01.336Z,3.65155
2023-01-02T00:53:02.242Z,4.89215
2023-01-02T00:58:03.149Z,5.61392
2023-01-02T01:03:04.267Z,5.98483
2023-01-02T01:08:05.201Z,4.71151
2023-01-02T01:13:06.165Z,3.72839
2023-01-02T01:18:07.073Z,4.33678
2023-01-02T01:23:07.978Z,5.22245
2023-01-02T01:28:08.894Z,6.27502
2023-01-02T01:33:09.823Z,6.26182
2023-01-02T01:38:10.786Z,6.85615
2023-01-02T01:43:11.718Z,7.12081
2023-01-02T01:48:12.610Z,7.88408
2023-01-02T01:53:13.550Z,8.66289
2023-01-02T01:58:14.479Z,9.71847
2023-01-02T02:03:15.471Z,10.38581
2023-01-02T02:08:16.383Z,11.03654
2023-01-02T02:13:17.321Z,11.26359
2023-01-02T02:18:18.230Z,11.41778
2023-01-02T02:23:19.128Z,12.13253
2023-01-02T02:28:20.035Z,13.93981
2023-01-02T02:33:20.985Z,15.27123
2023-01-02T02:38:21.891Z,16.68479
2023-01-02T02:43:22.786Z,14.94251
2023-01-02T02:48:23.698Z,15.76655
2023-01-02T02:53:24.909Z,15.52545
2023-01-02T02:58:26.121Z,16.16485
2023-01-02T03:03:27.184Z,16.44396
2023-01-02T03:08:33.027Z,17.88989
2023-01-02T03:13:41.324Z,16.82121
2023-01-02T03:18:43.207Z,18.11829
2023-01-02T03:23:44.379Z,18.26045
2023-01-02T03:28:45.315Z,17.91787
2023-01-02T03:33:46.389Z,18.28858
2023-01-02T03:38:47.323Z,19.23378
2023-01-02T03:43:54.783Z,19.22004
2023-01-02T03:48:57.683Z,19.51189
2023-01-02T03:53:58.643Z,19.29486
2023-01-02T03:58:59.579Z,19.86235
2023-01-02T04:04:00.645Z,19.81625
2023-01-02T04:09:01.580Z,20.40422
2023-01-02T04:14:02.539Z,20.8719
2023-01-02T04:19:03.496Z,21.07526
2023-01-02T04:24:04.465Z,20.48565
2023-01-02T04:29:05.380Z,20.54636
2023-01-02T04:34:06.301Z,20.42907
2023-01-02T04:39:07.207Z,21.10642
2023-01-02T04:44:08.171Z,21.55459
2023-01-02T04:49:09.115Z,21.6663
2023-01-02T04:54:10.037Z,21.66922
2023-01-02T04:59:11.096Z,21.99422
2023-01-02T05:04:12.126Z,22.21836
2023-01-02T05:09:13.020Z,22.39508
2023-01-02T05:14:13.975Z,22.63074
2023-01-02T05:19:15.163Z,22.06601
2023-01-02T05:24:16.191Z,21.75303
2023-01-02T05:29:17.103Z,21.96638
2023-01-02T05:34:18.149Z,22.35387
2023-01-02T05:39:19.060Z,22.32055
2023-01-02T05:44:19.970Z,22.91002
2023-01-02T05:49:20.877Z,22.92691
2023-01-02T05:54:21.839Z,23.61594
2023-01-02T05:59:22.749Z,22.97063
2023-01-02T06:04:23.788Z,24.12674
2023-01-02T06:09:25.027Z,23.8231
2023-01-02T06:14:26.222Z,23.72025
2023-01-02T06:19:27.159Z,24.07692
2023-01-02T06:24:28.094Z,24.01847
2023-01-02T06:29:28.992Z,23.94389
2023-01-02T06:34:29.902Z,23.34737
2023-01-02T06:39:30.807Z,23.24255
2023-01-02T06:44:31.727Z,22.99212
2023-01-02T06:49:32.625Z,22.85194
2023-01-02T06:54:33.588Z,22.37117
2023-01-02T06:59:34.474Z,22.99326
2023-01-02T07:04:35.388Z,22.11779
2023-01-02T07:09:36.294Z,21.87807
2023-01-02T07:14:37.216Z,22.03154
2023-01-02T07:19:38.200Z,21.97195
2023-01-02T07:24:39.122Z,21.00626
2023-01-02T07:29:40.024Z,19.74488
2023-01-02T07:34:40.911Z,20.48646
2023-01-02T07:39:41.802Z,20.81494
2023-01-02T07:44:42.725Z,20.32507
2023-01-02T07:49:43.675Z,20.45541
2023-01-02T07:54:44.683Z,19.41189
2023-01-02T07:59:45.586Z,18.86282
2023-01-02T08:04:47.020Z,18.48811
2023-01-02T08:09:47.948Z,18.17926
2023-01-02T08:14:48.862Z,18.14636
2023-01-02T08:19:49.768Z,17.9503
2023-01-02T08:24:50.746Z,18.10651
2023-01-02T08:29:51.664Z,18.28293
2023-01-02T08:34:52.606Z,18.37651
2023-01-02T08:39:53.513Z,17.84296
2023-01-02T08:44:54.478Z,17.81286
2023-01-02T08:49:55.425Z,17.1794
2023-01-02T08:54:56.551Z,17.77158
2023-01-02T08:59:57.453Z,17.70772
2023-01-02T09:04:58.456Z,17.60277
2023-01-02T09:09:59.413Z,17.00548
2023-01-02T09:15:00.343Z,16.44946
2023-01-02T09:20:01.306Z,15.86254
2023-01-02T09:25:02.203Z,15.79374
2023-01-02T09:30:03.135Z,15.84585
2023-01-02T09:35:04.096Z,15.31756
2023-01-02T09:40:05.027Z,15.93687
2023-01-02T09:45:08.802Z,16.48741
2023-01-02T09:50:10.272Z,16.95727
2023-01-02T09:55:11.233Z,17.45918
2023-01-02T10:00:12.192Z,18.35273
2023-01-02T10:05:13.117Z,19.20598
2023-01-02T10:10:14.078Z,19.56022
2023-01-02T10:15:15.093Z,20.33855
2023-01-02T10:20:20.510Z,20.17603
2023-01-02T10:25:24.925Z,20.36603
2023-01-02T10:30:26.175Z,20.51102
2023-01-02T10:35:27.143Z,22.06075
2023-01-02T10:40:28.070Z,22.72379
2023-01-02T10:45:29.026Z,22.28034
2023-01-02T10:50:29.956Z,21.88378
2023-01-02T10:55:30.917Z,21.92737
2023-01-02T11:00:32.021Z,22.27291
2023-01-02T11:05:33.165Z,22.48376
2023-01-02T11:10:34.091Z,22.77609
2023-01-02T11:15:35.038Z,22.71466
2023-01-02T11:20:35.942Z,22.78156
2023-01-02T11:25:36.877Z,22.64878
2023-01-02T11:30:37.776Z,22.91028
2023-01-02T11:35:38.761Z,23.49342
2023-01-02T11:40:39.647Z,23.05339
2023-01-02T11:45:40.871Z,22.67269
2023-01-02T11:50:41.819Z,23.28933
2023-01-02T11:55:42.742Z,22.85207
2023-01-02T12:00:43.638Z,22.55787
2023-01-02T12:05:44.678Z,22.42351
2023-01-02T12:10:45.574Z,22.35941
2023-01-02T12:15:46.524Z,22.08037
2023-01-02T12:20:47.446Z,22.43238
2023-01-02T12:25:48.341Z,22.68739
2023-01-02T12:30:49.234Z,21.8178
2023-01-02T12:35:50.258Z,21.42207
2023-01-02T12:40:51.178Z,21.56214
2023-01-02T12:45:52.163Z,21.58846
2023-01-02T12:50:53.107Z,21.28327
2023-01-02T12:55:54.037Z,20.29824
2023-01-02T13:00:55.021Z,20.04062
2023-01-02T13:05:56.177Z,20.45322
2023-01-02T13:10:57.092Z,20.51968
2023-01-02T13:16:03.047Z,20.80491
2023-01-02T13:21:04.396Z,20.75184
2023-01-02T13:26:05.335Z,21.2575
2023-01-02T13:31:44.148Z,20.74425
2023-01-02T13:36:46.224Z,20.55769
2023-01-02T13:41:48.086Z,19.75588
2023-01-02T13:47:03.191Z,19.10489
2023-01-02T13:52:04.371Z,19.048
2023-01-02T13:57:05.278Z,18.99409
2023-01-02T14:02:06.339Z,18.81747
2023-01-02T14:07:07.399Z,18.84998
2023-01-02T14:12:08.296Z,18.68583
2023-01-02T14:17:09.200Z,18.66392
2023-01-02T14:22:10.140Z,18.17349
2023-01-02T14:27:11.092Z,17.48595
2023-01-02T14:32:12.008Z,17.69854
2023-01-02T14:37:12.950Z,16.22311
2023-01-02T14:42:13.903Z,15.5608
2023-01-02T14:47:14.858Z,15.15525
2023-01-02T14:52:15.810Z,15.92153
2023-01-02T14:57:16.864Z,15.89263
2023-01-02T15:02:17.986Z,16.37809
2023-01-02T15:07:19.117Z,15.32463
2023-01-02T15:12:20.158Z,15.44672
2023-01-02T15:17:21.140Z,14.66222
2023-01-02T15:22:22.079Z,12.92801
2023-01-02T15:27:23.082Z,11.76782
2023-01-02T15:32:24.049Z,11.28605
2023-01-02T15:37:25.763Z,10.66112
2023-01-02T15:42:27.061Z,9.38489
2023-01-02T15:47:28.736Z,8.38265
2023-01-02T15:52:29.885Z,7.71989
2023-01-02T15:57:30.804Z,6.84387
2023-01-02T16:02:31.909Z,6.61907
2023-01-02T16:07:32.973Z,5.37113
2023-01-02T16:12:33.919Z,4.70732
2023-01-02T16:17:34.880Z,3.70333
2023-01-02T16:22:36.015Z,3.54603
2023-01-02T16:27:36.969Z,2.43127
2023-01-02T16:32:37.912Z,2.25714
2023-01-02T16:37:38.862Z,0.68304
2023-01-02T16:42:39.762Z,-0.07796
2023-01-02T16:47:40.696Z,-0.32401
2023-01-02T16:52:41.717Z,-1.67414
2023-01-02T16:57:42.700Z,-1.44313
2023-01-02T17:02:43.860Z,-2.60811
2023-01-02T17:07:44.966Z,-3.10702
2023-01-02T17:12:45.937Z,-3.86723
2023-01-02T17:17:46.893Z,-5.57892
2023-01-02T17:22:47.823Z,-6.07194
2023-01-02T17:27:48.739Z,-6.19378
2023-01-02T17:32:49.638Z,-5.67676
2023-01-02T17:37:50.583Z,-6.57811
2023-01-02T17:42:51.501Z,-7.17879
2023-01-02T17:48:03.604Z,-7.05893
2023-01-02T17:53:08.843Z,-7.07558
2023-01-02T17:58:09.776Z,-7.3085
2023-01-02T18:03:10.688Z,-8.05641
2023-01-02T18:08:11.704Z,-9.44838
2023-01-02T18:13:12.628Z,-10.16784
2023-01-02T18:18:18.499Z,-10.27854
2023-01-02T18:23:19.421Z,-10.1795
2023-01-02T18:28:20.342Z,-11.02366
2023-01-02T18:33:21.302Z,-9.81805
2023-01-02T18:38:22.229Z,-10.21737
2023-01-02T18:43:23.138Z,-11.43522
2023-01-02T18:48:24.164Z,-12.31769
2023-01-02T18:53:25.244Z,-13.2984
2023-01-02T18:58:26.473Z,-13.23949
2023-01-02T19:03:27.476Z,-13.37954
2023-01-02T19:08:28.459Z,-13.65973
2023-01-02T19:13:29.564Z,-15.52343
2023-01-02T19:18:30.490Z,-15.69927
2023-01-02T19:23:31.403Z,-16.1971
2023-01-02T19:28:32.433Z,-16.42661
2023-01-02T19:33:33.392Z,-17.65101
2023-01-02T19:38:34.338Z,-18.69677
2023-01-02T19:43:35.304Z,-19.15295
2023-01-02T19:48:36.231Z,-19.78515
2023-01-02T19:53:37.208Z,-19.89501
2023-01-02T19:58:38.121Z,-20.40999
2023-01-02T20:03:39.080Z,-21.56375
2023-01-02T20:08:40.170Z,-21.45273
2023-01-02T20:13:41.095Z,-21.3862
2023-01-02T20:18:42.031Z,-21.18728
2023-01-02T20:23:43.075Z,-19.98318
2023-01-02T20:28:44.065Z,-20.40396
2023-01-02T20:33:45.028Z,-20.77686
2023-01-02T20:38:45.981Z,-22.33159
2023-01-02T20:43:46.917Z,-23.45993
2023-01-02T20:48:47.926Z,-25.6206
2023-01-02T20:53:48.841Z,-26.15001
2023-01-02T20:58:49.793Z,-26.73586
2023-01-02T21:03:50.757Z,-27.8563
2023-01-02T21:08:51.783Z,-28.96252
2023-01-02T21:13:52.718Z,-30.51144
2023-01-02T21:18:53.659Z,-31.18983
2023-01-02T21:23:54.912Z,-31.62165
2023-01-02T21:28:55.862Z,-31.58299
2023-01-02T21:33:56.810Z,-32.20388
2023-01-02T21:38:57.750Z,-33.65885
2023-01-02T21:44:03.812Z,-34.29049
2023-01-02T21:49:04.769Z,-35.02206
2023-01-02T21:54:05.705Z,-35.00149
2023-01-02T21:59:06.620Z,-35.17727
2023-01-02T22:04:07.547Z,-35.66159
2023-01-02T22:09:08.548Z,-37.07609
2023-01-02T22:14:09.463Z,-36.70145
2023-01-02T22:19:10.411Z,-37.19402
2023-01-02T22:24:11.359Z,-38.05071
2023-01-02T22:29:12.296Z,-38.58753
2023-01-02T22:34:13.227Z,-39.11155
2023-01-02T22:39:27.898Z,-39.69993
2023-01-02T22:44:29.916Z,-39.64109
2023-01-02T22:49:30.932Z,-39.75066
2023-01-02T22:54:31.837Z,-40.64764
2023-01-02T22:59:32.768Z,-40.8598
2023-01-02T23:04:33.747Z,-41.42619
2023-01-02T23:09:34.800Z,-41.43552
2023-01-02T23:14:35.791Z,-40.95737
2023-01-02T23:19:36.718Z,-42.17794
2023-01-02T23:24:37.647Z,-42.12154
2023-01-02T23:29:38.570Z,-42.10441
2023-01-02T23:34:39.557Z,-42.62469
2023-01-02T23:39:40.494Z,-43.4773
2023-01-02T23:44:41.382Z,-43.90304
2023-01-02T23:49:42.296Z,-44.3187
2023-01-02T23:54:43.177Z,-44.41662
2023-01-02T23:59:44.123Z,-44.78332
